Wild Peach Village, Texas
Current Conditions -  °F | °C
As of 11:53 AM on Thursday 29 Jan 2015 (Local Time) from KLBX Reporting Station
Clear Clear  
Wind Chill: 71°   Ceiling: Unl
Heat Index: 71°   Visibility: 10mi
Dew Point: 59°   Wind: 7mph
Humidity: 66%   Direction: 220°SW
Pressure: 30.25"   Gusts: NA
Location:  28.9272°N, 95.5834°W
Report Text: KLBX 291753Z AUTO 22006KT 10SM CLR 22/15 A3025 RMK AO2 SLP243 T02170150 10222 20083 50006
Loading
Personal Weather Stations






























Interactive Weather Map New forecast layout! Learn more

10-Day Weather Forecast

Advertisements
Track Severe Weather on mobile